sensor_id;sensor_type;location;lat;lon;timestamp;P1;P2;P0
47081;PMS5003;33066;49.296;14.470;2022-11-12T00:00:57;74;66;
47081;PMS5003;33066;49.296;14.470;2022-11-12T00:03:21;80;67;
47081;PMS5003;33066;49.296;14.470;2022-11-12T00:05:47;72;66;
47081;PMS5003;33066;49.296;14.470;2022-11-12T00:08:12;83;65;
47081;PMS5003;33066;49.296;14.470;2022-11-12T00:10:38;78;63;
47081;PMS5003;33066;49.296;14.470;2022-11-12T00:13:03;82;63;
47081;PMS5003;33066;49.296;14.470;2022-11-12T00:15:28;79;66;
47081;PMS5003;33066;49.296;14.470;2022-11-12T00:17:53;77;69;
47081;PMS5003;33066;49.296;14.470;2022-11-12T00:20:19;80;62;
47081;PMS5003;33066;49.296;14.470;2022-11-12T00:22:44;101;75;
47081;PMS5003;33066;49.296;14.470;2022-11-12T00:25:09;96;75;
47081;PMS5003;33066;49.296;14.470;2022-11-12T00:27:35;96;74;
47081;PMS5003;33066;49.296;14.470;2022-11-12T00:30:02;73;61;
47081;PMS5003;33066;49.296;14.470;2022-11-12T00:32:27;71;59;
47081;PMS5003;33066;49.296;14.470;2022-11-12T00:34:51;67;64;
47081;PMS5003;33066;49.296;14.470;2022-11-12T00:37:16;51;44;
47081;PMS5003;33066;49.296;14.470;2022-11-12T00:39:42;70;52;
47081;PMS5003;33066;49.296;14.470;2022-11-12T00:42:07;56;49;
47081;PMS5003;33066;49.296;14.470;2022-11-12T00:44:33;50;41;
47081;PMS5003;33066;49.296;14.470;2022-11-12T00:46:58;43;37;
47081;PMS5003;33066;49.296;14.470;2022-11-12T00:49:24;42;37;
47081;PMS5003;33066;49.296;14.470;2022-11-12T00:51:49;47;39;
47081;PMS5003;33066;49.296;14.470;2022-11-12T00:54:16;45;42;
47081;PMS5003;33066;49.296;14.470;2022-11-12T00:56:40;54;45;
47081;PMS5003;33066;49.296;14.470;2022-11-12T00:59:05;62;47;
47081;PMS5003;33066;49.296;14.470;2022-11-12T01:01:32;63;57;
47081;PMS5003;33066;49.296;14.470;2022-11-12T01:03:58;61;45;
47081;PMS5003;33066;49.296;14.470;2022-11-12T01:06:22;49;44;
47081;PMS5003;33066;49.296;14.470;2022-11-12T01:08:47;52;49;
47081;PMS5003;33066;49.296;14.470;2022-11-12T01:11:13;60;57;
47081;PMS5003;33066;49.296;14.470;2022-11-12T01:13:39;69;56;
47081;PMS5003;33066;49.296;14.470;2022-11-12T01:16:04;60;57;
47081;PMS5003;33066;49.296;14.470;2022-11-12T01:18:30;73;59;
47081;PMS5003;33066;49.296;14.470;2022-11-12T01:20:53;47;41;
47081;PMS5003;33066;49.296;14.470;2022-11-12T01:23:19;43;41;
47081;PMS5003;33066;49.296;14.470;2022-11-12T01:25:45;89;76;
47081;PMS5003;33066;49.296;14.470;2022-11-12T01:28:10;66;57;
47081;PMS5003;33066;49.296;14.470;2022-11-12T01:30:36;66;44;
47081;PMS5003;33066;49.296;14.470;2022-11-12T01:33:01;63;54;
47081;PMS5003;33066;49.296;14.470;2022-11-12T01:35:27;55;50;
47081;PMS5003;33066;49.296;14.470;2022-11-12T01:37:53;68;58;
47081;PMS5003;33066;49.296;14.470;2022-11-12T01:40:18;53;45;
47081;PMS5003;33066;49.296;14.470;2022-11-12T01:45:11;48;47;
47081;PMS5003;33066;49.296;14.470;2022-11-12T01:47:35;58;47;
47081;PMS5003;33066;49.296;14.470;2022-11-12T01:50:04;59;47;
47081;PMS5003;33066;49.296;14.470;2022-11-12T01:52:26;61;55;
47081;PMS5003;33066;49.296;14.470;2022-11-12T01:54:51;60;45;
47081;PMS5003;33066;49.296;14.470;2022-11-12T01:57:20;53;45;
47081;PMS5003;33066;49.296;14.470;2022-11-12T01:59:42;62;55;
47081;PMS5003;33066;49.296;14.470;2022-11-12T02:02:07;57;48;
47081;PMS5003;33066;49.296;14.470;2022-11-12T02:04:33;53;50;
47081;PMS5003;33066;49.296;14.470;2022-11-12T02:06:58;49;42;
47081;PMS5003;33066;49.296;14.470;2022-11-12T02:09:24;52;41;
47081;PMS5003;33066;49.296;14.470;2022-11-12T02:11:49;49;38;
47081;PMS5003;33066;49.296;14.470;2022-11-12T02:14:14;41;39;
47081;PMS5003;33066;49.296;14.470;2022-11-12T02:16:41;57;42;
47081;PMS5003;33066;49.296;14.470;2022-11-12T02:19:06;49;41;
47081;PMS5003;33066;49.296;14.470;2022-11-12T02:21:32;49;42;
47081;PMS5003;33066;49.296;14.470;2022-11-12T02:23:58;49;44;
47081;PMS5003;33066;49.296;14.470;2022-11-12T02:26:22;54;46;
47081;PMS5003;33066;49.296;14.470;2022-11-12T02:28:47;49;44;
47081;PMS5003;33066;49.296;14.470;2022-11-12T02:31:15;45;43;
47081;PMS5003;33066;49.296;14.470;2022-11-12T02:33:39;50;43;
47081;PMS5003;33066;49.296;14.470;2022-11-12T02:36:05;44;38;
47081;PMS5003;33066;49.296;14.470;2022-11-12T02:38:30;45;34;
47081;PMS5003;33066;49.296;14.470;2022-11-12T02:40:55;46;33;
47081;PMS5003;33066;49.296;14.470;2022-11-12T02:43:20;45;41;
47081;PMS5003;33066;49.296;14.470;2022-11-12T02:45:45;52;40;
47081;PMS5003;33066;49.296;14.470;2022-11-12T02:48:11;41;34;
47081;PMS5003;33066;49.296;14.470;2022-11-12T02:50:36;43;36;
47081;PMS5003;33066;49.296;14.470;2022-11-12T02:53:01;33;33;
47081;PMS5003;33066;49.296;14.470;2022-11-12T02:55:26;29;26;
47081;PMS5003;33066;49.296;14.470;2022-11-12T02:57:55;32;31;
47081;PMS5003;33066;49.296;14.470;2022-11-12T03:00:17;40;34;
47081;PMS5003;33066;49.296;14.470;2022-11-12T03:02:43;45;35;
47081;PMS5003;33066;49.296;14.470;2022-11-12T03:05:09;38;34;
47081;PMS5003;33066;49.296;14.470;2022-11-12T03:07:33;36;30;
47081;PMS5003;33066;49.296;14.470;2022-11-12T03:09:59;33;29;
47081;PMS5003;33066;49.296;14.470;2022-11-12T03:12:24;31;25;
47081;PMS5003;33066;49.296;14.470;2022-11-12T03:14:50;30;28;
47081;PMS5003;33066;49.296;14.470;2022-11-12T03:17:15;33;32;
47081;PMS5003;33066;49.296;14.470;2022-11-12T03:19:40;43;34;
47081;PMS5003;33066;49.296;14.470;2022-11-12T03:22:06;36;33;
47081;PMS5003;33066;49.296;14.470;2022-11-12T03:24:31;42;36;
47081;PMS5003;33066;49.296;14.470;2022-11-12T03:26:57;34;28;
47081;PMS5003;33066;49.296;14.470;2022-11-12T03:29:24;49;39;
47081;PMS5003;33066;49.296;14.470;2022-11-12T03:31:48;44;39;
47081;PMS5003;33066;49.296;14.470;2022-11-12T03:34:13;35;31;
47081;PMS5003;33066;49.296;14.470;2022-11-12T03:36:38;44;33;
47081;PMS5003;33066;49.296;14.470;2022-11-12T03:39:04;36;33;
47081;PMS5003;33066;49.296;14.470;2022-11-12T03:41:31;39;35;
47081;PMS5003;33066;49.296;14.470;2022-11-12T03:43:56;40;33;
47081;PMS5003;33066;49.296;14.470;2022-11-12T03:46:20;41;39;
47081;PMS5003;33066;49.296;14.470;2022-11-12T03:48:46;41;36;
47081;PMS5003;33066;49.296;14.470;2022-11-12T03:51:11;48;39;
47081;PMS5003;33066;49.296;14.470;2022-11-12T03:53:38;45;35;
47081;PMS5003;33066;49.296;14.470;2022-11-12T03:56:02;41;36;
47081;PMS5003;33066;49.296;14.470;2022-11-12T03:58:28;42;40;
47081;PMS5003;33066;49.296;14.470;2022-11-12T04:00:53;41;30;
47081;PMS5003;33066;49.296;14.470;2022-11-12T04:03:19;39;31;
47081;PMS5003;33066;49.296;14.470;2022-11-12T04:05:44;35;34;
47081;PMS5003;33066;49.296;14.470;2022-11-12T04:08:12;40;34;
47081;PMS5003;33066;49.296;14.470;2022-11-12T04:13:00;39;32;
47081;PMS5003;33066;49.296;14.470;2022-11-12T04:15:25;40;34;
47081;PMS5003;33066;49.296;14.470;2022-11-12T04:17:50;46;35;
47081;PMS5003;33066;49.296;14.470;2022-11-12T04:20:16;45;39;
47081;PMS5003;33066;49.296;14.470;2022-11-12T04:22:42;44;37;
47081;PMS5003;33066;49.296;14.470;2022-11-12T04:25:07;55;43;
47081;PMS5003;33066;49.296;14.470;2022-11-12T04:27:33;33;30;
47081;PMS5003;33066;49.296;14.470;2022-11-12T04:29:58;32;31;
47081;PMS5003;33066;49.296;14.470;2022-11-12T04:32:24;44;31;
47081;PMS5003;33066;49.296;14.470;2022-11-12T04:34:48;31;26;
47081;PMS5003;33066;49.296;14.470;2022-11-12T04:37:14;40;38;
47081;PMS5003;33066;49.296;14.470;2022-11-12T04:39:39;51;39;
47081;PMS5003;33066;49.296;14.470;2022-11-12T04:42:06;34;32;
47081;PMS5003;33066;49.296;14.470;2022-11-12T04:44:30;51;43;
47081;PMS5003;33066;49.296;14.470;2022-11-12T04:46:56;42;37;
47081;PMS5003;33066;49.296;14.470;2022-11-12T04:49:21;46;39;
47081;PMS5003;33066;49.296;14.470;2022-11-12T04:51:46;45;37;
47081;PMS5003;33066;49.296;14.470;2022-11-12T04:54:12;48;38;
47081;PMS5003;33066;49.296;14.470;2022-11-12T04:56:38;38;31;
47081;PMS5003;33066;49.296;14.470;2022-11-12T04:59:03;38;29;
47081;PMS5003;33066;49.296;14.470;2022-11-12T05:01:28;58;44;
47081;PMS5003;33066;49.296;14.470;2022-11-12T05:03:53;39;35;
47081;PMS5003;33066;49.296;14.470;2022-11-12T05:06:19;40;34;
47081;PMS5003;33066;49.296;14.470;2022-11-12T05:08:45;40;35;
47081;PMS5003;33066;49.296;14.470;2022-11-12T05:11:10;33;32;
47081;PMS5003;33066;49.296;14.470;2022-11-12T05:13:36;41;28;
47081;PMS5003;33066;49.296;14.470;2022-11-12T05:16:01;55;44;
47081;PMS5003;33066;49.296;14.470;2022-11-12T05:18:26;40;33;
47081;PMS5003;33066;49.296;14.470;2022-11-12T05:20:52;40;28;
47081;PMS5003;33066;49.296;14.470;2022-11-12T05:23:18;34;27;
47081;PMS5003;33066;49.296;14.470;2022-11-12T05:25:43;38;34;
47081;PMS5003;33066;49.296;14.470;2022-11-12T05:28:08;44;32;
47081;PMS5003;33066;49.296;14.470;2022-11-12T05:30:34;45;42;
47081;PMS5003;33066;49.296;14.470;2022-11-12T05:32:59;33;27;
47081;PMS5003;33066;49.296;14.470;2022-11-12T05:35:25;49;36;
47081;PMS5003;33066;49.296;14.470;2022-11-12T05:37:50;37;31;
47081;PMS5003;33066;49.296;14.470;2022-11-12T05:40:16;43;37;
47081;PMS5003;33066;49.296;14.470;2022-11-12T05:42:41;43;36;
47081;PMS5003;33066;49.296;14.470;2022-11-12T05:45:07;44;38;
47081;PMS5003;33066;49.296;14.470;2022-11-12T05:47:32;49;38;
47081;PMS5003;33066;49.296;14.470;2022-11-12T05:49:59;30;26;
47081;PMS5003;33066;49.296;14.470;2022-11-12T05:52:23;36;30;
47081;PMS5003;33066;49.296;14.470;2022-11-12T05:54:48;36;33;
47081;PMS5003;33066;49.296;14.470;2022-11-12T05:57:14;33;31;
47081;PMS5003;33066;49.296;14.470;2022-11-12T05:59:40;41;36;
47081;PMS5003;33066;49.296;14.470;2022-11-12T06:02:05;37;32;
47081;PMS5003;33066;49.296;14.470;2022-11-12T06:04:30;30;28;
47081;PMS5003;33066;49.296;14.470;2022-11-12T06:06:56;32;30;
47081;PMS5003;33066;49.296;14.470;2022-11-12T06:09:21;44;35;
47081;PMS5003;33066;49.296;14.470;2022-11-12T06:11:47;37;33;
47081;PMS5003;33066;49.296;14.470;2022-11-12T06:14:14;37;32;
47081;PMS5003;33066;49.296;14.470;2022-11-12T06:16:40;30;29;
47081;PMS5003;33066;49.296;14.470;2022-11-12T06:19:03;33;30;
47081;PMS5003;33066;49.296;14.470;2022-11-12T06:21:29;43;38;
47081;PMS5003;33066;49.296;14.470;2022-11-12T06:23:55;31;29;
47081;PMS5003;33066;49.296;14.470;2022-11-12T06:26:20;39;36;
47081;PMS5003;33066;49.296;14.470;2022-11-12T06:28:46;37;30;
47081;PMS5003;33066;49.296;14.470;2022-11-12T06:31:11;39;31;
47081;PMS5003;33066;49.296;14.470;2022-11-12T06:33:37;39;31;
47081;PMS5003;33066;49.296;14.470;2022-11-12T06:36:03;36;27;
47081;PMS5003;33066;49.296;14.470;2022-11-12T06:38:28;43;33;
47081;PMS5003;33066;49.296;14.470;2022-11-12T06:40:53;40;32;
47081;PMS5003;33066;49.296;14.470;2022-11-12T06:43:19;50;39;
47081;PMS5003;33066;49.296;14.470;2022-11-12T06:45:44;45;34;
47081;PMS5003;33066;49.296;14.470;2022-11-12T06:48:10;34;31;
47081;PMS5003;33066;49.296;14.470;2022-11-12T06:50:35;44;39;
47081;PMS5003;33066;49.296;14.470;2022-11-12T06:53:00;37;33;
47081;PMS5003;33066;49.296;14.470;2022-11-12T06:55:26;43;36;
47081;PMS5003;33066;49.296;14.470;2022-11-12T06:57:51;46;39;
47081;PMS5003;33066;49.296;14.470;2022-11-12T07:00:17;46;41;
47081;PMS5003;33066;49.296;14.470;2022-11-12T07:02:42;46;40;
47081;PMS5003;33066;49.296;14.470;2022-11-12T07:05:07;33;30;
47081;PMS5003;33066;49.296;14.470;2022-11-12T07:07:32;44;41;
47081;PMS5003;33066;49.296;14.470;2022-11-12T07:09:58;38;35;
47081;PMS5003;33066;49.296;14.470;2022-11-12T07:12:24;38;33;
47081;PMS5003;33066;49.296;14.470;2022-11-12T07:14:49;46;40;
47081;PMS5003;33066;49.296;14.470;2022-11-12T07:17:15;36;33;
47081;PMS5003;33066;49.296;14.470;2022-11-12T07:19:40;28;28;
47081;PMS5003;33066;49.296;14.470;2022-11-12T07:22:07;42;40;
47081;PMS5003;33066;49.296;14.470;2022-11-12T07:24:31;34;33;
47081;PMS5003;33066;49.296;14.470;2022-11-12T07:26:56;36;32;
47081;PMS5003;33066;49.296;14.470;2022-11-12T07:29:22;36;32;
47081;PMS5003;33066;49.296;14.470;2022-11-12T07:31:47;34;32;
47081;PMS5003;33066;49.296;14.470;2022-11-12T07:34:13;29;29;
47081;PMS5003;33066;49.296;14.470;2022-11-12T07:36:39;32;30;
47081;PMS5003;33066;49.296;14.470;2022-11-12T07:39:04;42;42;
47081;PMS5003;33066;49.296;14.470;2022-11-12T07:41:30;43;39;
47081;PMS5003;33066;49.296;14.470;2022-11-12T07:43:55;43;38;
47081;PMS5003;33066;49.296;14.470;2022-11-12T07:46:21;49;38;
47081;PMS5003;33066;49.296;14.470;2022-11-12T07:48:45;42;40;
47081;PMS5003;33066;49.296;14.470;2022-11-12T07:51:11;57;48;
47081;PMS5003;33066;49.296;14.470;2022-11-12T07:53:36;54;49;
47081;PMS5003;33066;49.296;14.470;2022-11-12T07:56:02;55;52;
47081;PMS5003;33066;49.296;14.470;2022-11-12T07:58:29;43;42;
47081;PMS5003;33066;49.296;14.470;2022-11-12T08:00:54;57;50;
47081;PMS5003;33066;49.296;14.470;2022-11-12T08:03:18;49;41;
47081;PMS5003;33066;49.296;14.470;2022-11-12T08:05:43;53;46;
47081;PMS5003;33066;49.296;14.470;2022-11-12T08:08:09;57;42;
47081;PMS5003;33066;49.296;14.470;2022-11-12T08:10:35;60;56;
47081;PMS5003;33066;49.296;14.470;2022-11-12T08:13:00;270;221;
47081;PMS5003;33066;49.296;14.470;2022-11-12T08:15:25;59;51;
47081;PMS5003;33066;49.296;14.470;2022-11-12T08:17:50;50;45;
47081;PMS5003;33066;49.296;14.470;2022-11-12T08:20:16;47;38;
47081;PMS5003;33066;49.296;14.470;2022-11-12T08:22:41;36;31;
47081;PMS5003;33066;49.296;14.470;2022-11-12T08:25:07;107;92;
47081;PMS5003;33066;49.296;14.470;2022-11-12T08:27:32;63;57;
47081;PMS5003;33066;49.296;14.470;2022-11-12T08:29:57;57;46;
47081;PMS5003;33066;49.296;14.470;2022-11-12T08:32:22;56;44;
47081;PMS5003;33066;49.296;14.470;2022-11-12T08:34:47;50;45;
47081;PMS5003;33066;49.296;14.470;2022-11-12T08:37:13;78;56;
47081;PMS5003;33066;49.296;14.470;2022-11-12T08:39:38;92;78;
47081;PMS5003;33066;49.296;14.470;2022-11-12T08:42:04;73;62;
47081;PMS5003;33066;49.296;14.470;2022-11-12T08:44:29;80;67;
47081;PMS5003;33066;49.296;14.470;2022-11-12T08:46:55;71;60;
47081;PMS5003;33066;49.296;14.470;2022-11-12T08:49:20;68;54;
47081;PMS5003;33066;49.296;14.470;2022-11-12T08:51:46;71;56;
47081;PMS5003;33066;49.296;14.470;2022-11-12T08:54:11;60;53;
47081;PMS5003;33066;49.296;14.470;2022-11-12T08:56:37;68;61;
47081;PMS5003;33066;49.296;14.470;2022-11-12T08:59:02;71;53;
47081;PMS5003;33066;49.296;14.470;2022-11-12T09:01:28;66;60;
47081;PMS5003;33066;49.296;14.470;2022-11-12T09:03:53;60;52;
47081;PMS5003;33066;49.296;14.470;2022-11-12T09:06:18;72;59;
47081;PMS5003;33066;49.296;14.470;2022-11-12T09:08:44;82;66;
47081;PMS5003;33066;49.296;14.470;2022-11-12T09:11:09;79;62;
47081;PMS5003;33066;49.296;14.470;2022-11-12T09:13:34;60;53;
47081;PMS5003;33066;49.296;14.470;2022-11-12T09:16:02;63;57;
47081;PMS5003;33066;49.296;14.470;2022-11-12T09:18:25;68;56;
47081;PMS5003;33066;49.296;14.470;2022-11-12T09:20:51;64;55;
47081;PMS5003;33066;49.296;14.470;2022-11-12T09:23:16;56;44;
47081;PMS5003;33066;49.296;14.470;2022-11-12T09:25:41;57;54;
47081;PMS5003;33066;49.296;14.470;2022-11-12T09:28:07;67;55;
47081;PMS5003;33066;49.296;14.470;2022-11-12T09:30:32;61;52;
47081;PMS5003;33066;49.296;14.470;2022-11-12T09:32:57;63;53;
47081;PMS5003;33066;49.296;14.470;2022-11-12T09:35:23;67;59;
47081;PMS5003;33066;49.296;14.470;2022-11-12T09:37:48;67;57;
47081;PMS5003;33066;49.296;14.470;2022-11-12T09:40:15;76;61;
47081;PMS5003;33066;49.296;14.470;2022-11-12T09:42:40;68;60;
47081;PMS5003;33066;49.296;14.470;2022-11-12T09:45:17;69;62;
47081;PMS5003;33066;49.296;14.470;2022-11-12T09:47:31;75;57;
47081;PMS5003;33066;49.296;14.470;2022-11-12T09:49:58;82;72;
47081;PMS5003;33066;49.296;14.470;2022-11-12T09:52:23;83;68;
47081;PMS5003;33066;49.296;14.470;2022-11-12T09:54:49;74;65;
47081;PMS5003;33066;49.296;14.470;2022-11-12T09:57:13;76;62;
47081;PMS5003;33066;49.296;14.470;2022-11-12T09:59:39;84;65;
47081;PMS5003;33066;49.296;14.470;2022-11-12T10:02:05;69;59;
47081;PMS5003;33066;49.296;14.470;2022-11-12T10:04:39;83;63;
47081;PMS5003;33066;49.296;14.470;2022-11-12T10:06:56;72;62;
47081;PMS5003;33066;49.296;14.470;2022-11-12T10:09:22;86;72;
47081;PMS5003;33066;49.296;14.470;2022-11-12T10:11:51;75;66;
47081;PMS5003;33066;49.296;14.470;2022-11-12T10:14:12;78;65;
47081;PMS5003;33066;49.296;14.470;2022-11-12T10:16:42;64;60;
47081;PMS5003;33066;49.296;14.470;2022-11-12T10:19:06;60;50;
47081;PMS5003;33066;49.296;14.470;2022-11-12T10:21:28;97;88;
47081;PMS5003;33066;49.296;14.470;2022-11-12T10:23:54;73;60;
47081;PMS5003;33066;49.296;14.470;2022-11-12T10:26:19;73;64;
47081;PMS5003;33066;49.296;14.470;2022-11-12T10:28:45;81;75;
47081;PMS5003;33066;49.296;14.470;2022-11-12T10:31:10;89;73;
47081;PMS5003;33066;49.296;14.470;2022-11-12T10:33:35;91;73;
47081;PMS5003;33066;49.296;14.470;2022-11-12T10:36:09;67;60;
47081;PMS5003;33066;49.296;14.470;2022-11-12T10:38:26;74;56;
47081;PMS5003;33066;49.296;14.470;2022-11-12T10:40:51;72;59;
47081;PMS5003;33066;49.296;14.470;2022-11-12T10:43:20;74;60;
47081;PMS5003;33066;49.296;14.470;2022-11-12T10:45:43;72;63;
47081;PMS5003;33066;49.296;14.470;2022-11-12T10:50:35;55;48;
47081;PMS5003;33066;49.296;14.470;2022-11-12T10:53:02;56;48;
47081;PMS5003;33066;49.296;14.470;2022-11-12T10:55:26;52;48;
47081;PMS5003;33066;49.296;14.470;2022-11-12T11:00:17;63;55;
47081;PMS5003;33066;49.296;14.470;2022-11-12T11:07:32;86;71;
47081;PMS5003;33066;49.296;14.470;2022-11-12T11:09:58;57;51;
47081;PMS5003;33066;49.296;14.470;2022-11-12T11:12:22;59;46;
47081;PMS5003;33066;49.296;14.470;2022-11-12T11:14:47;62;46;
47081;PMS5003;33066;49.296;14.470;2022-11-12T11:17:14;64;50;
47081;PMS5003;33066;49.296;14.470;2022-11-12T11:19:40;66;53;
47081;PMS5003;33066;49.296;14.470;2022-11-12T11:24:32;49;45;
47081;PMS5003;33066;49.296;14.470;2022-11-12T11:26:57;49;43;
47081;PMS5003;33066;49.296;14.470;2022-11-12T11:29:26;48;43;
47081;PMS5003;33066;49.296;14.470;2022-11-12T11:31:47;48;44;
47081;PMS5003;33066;49.296;14.470;2022-11-12T11:34:13;43;40;
47081;PMS5003;33066;49.296;14.470;2022-11-12T11:36:37;56;51;
47081;PMS5003;33066;49.296;14.470;2022-11-12T11:39:02;56;46;
47081;PMS5003;33066;49.296;14.470;2022-11-12T11:41:34;50;43;
47081;PMS5003;33066;49.296;14.470;2022-11-12T11:43:56;49;43;
47081;PMS5003;33066;49.296;14.470;2022-11-12T11:46:22;45;42;
47081;PMS5003;33066;49.296;14.470;2022-11-12T11:48:48;48;46;
47081;PMS5003;33066;49.296;14.470;2022-11-12T11:51:23;53;49;
47081;PMS5003;33066;49.296;14.470;2022-11-12T11:53:37;49;44;
47081;PMS5003;33066;49.296;14.470;2022-11-12T11:56:00;45;41;
47081;PMS5003;33066;49.296;14.470;2022-11-12T11:58:34;40;35;
47081;PMS5003;33066;49.296;14.470;2022-11-12T12:00:51;48;41;
47081;PMS5003;33066;49.296;14.470;2022-11-12T12:03:16;43;42;
47081;PMS5003;33066;49.296;14.470;2022-11-12T12:05:41;40;37;
47081;PMS5003;33066;49.296;14.470;2022-11-12T12:08:07;40;38;
47081;PMS5003;33066;49.296;14.470;2022-11-12T12:10:38;47;42;
47081;PMS5003;33066;49.296;14.470;2022-11-12T12:12:59;58;48;
47081;PMS5003;33066;49.296;14.470;2022-11-12T12:15:28;42;40;
47081;PMS5003;33066;49.296;14.470;2022-11-12T12:17:49;47;41;
47081;PMS5003;33066;49.296;14.470;2022-11-12T12:20:15;42;39;
47081;PMS5003;33066;49.296;14.470;2022-11-12T12:22:39;52;44;
47081;PMS5003;33066;49.296;14.470;2022-11-12T12:25:08;38;35;
47081;PMS5003;33066;49.296;14.470;2022-11-12T12:27:29;51;43;
47081;PMS5003;33066;49.296;14.470;2022-11-12T12:29:55;49;42;
47081;PMS5003;33066;49.296;14.470;2022-11-12T12:32:21;36;34;
47081;PMS5003;33066;49.296;14.470;2022-11-12T12:34:46;41;32;
47081;PMS5003;33066;49.296;14.470;2022-11-12T12:37:13;40;39;
47081;PMS5003;33066;49.296;14.470;2022-11-12T12:39:39;38;37;
47081;PMS5003;33066;49.296;14.470;2022-11-12T12:42:03;37;36;
47081;PMS5003;33066;49.296;14.470;2022-11-12T12:44:29;39;34;
47081;PMS5003;33066;49.296;14.470;2022-11-12T12:46:54;38;35;
47081;PMS5003;33066;49.296;14.470;2022-11-12T12:49:20;44;41;
47081;PMS5003;33066;49.296;14.470;2022-11-12T12:51:43;38;35;
47081;PMS5003;33066;49.296;14.470;2022-11-12T12:56:41;42;36;
47081;PMS5003;33066;49.296;14.470;2022-11-12T12:59:00;37;33;
47081;PMS5003;33066;49.296;14.470;2022-11-12T13:01:27;36;30;
47081;PMS5003;33066;49.296;14.470;2022-11-12T13:03:54;36;34;
47081;PMS5003;33066;49.296;14.470;2022-11-12T13:08:41;28;25;
47081;PMS5003;33066;49.296;14.470;2022-11-12T13:11:06;34;31;
47081;PMS5003;33066;49.296;14.470;2022-11-12T13:13:32;39;35;
47081;PMS5003;33066;49.296;14.470;2022-11-12T13:15:58;29;26;
47081;PMS5003;33066;49.296;14.470;2022-11-12T13:25:39;39;29;
47081;PMS5003;33066;49.296;14.470;2022-11-12T13:28:05;31;26;
47081;PMS5003;33066;49.296;14.470;2022-11-12T13:32:55;24;23;
47081;PMS5003;33066;49.296;14.470;2022-11-12T13:35:26;33;29;
47081;PMS5003;33066;49.296;14.470;2022-11-12T13:37:46;26;23;
47081;PMS5003;33066;49.296;14.470;2022-11-12T13:40:12;24;20;
47081;PMS5003;33066;49.296;14.470;2022-11-12T13:42:36;31;28;
47081;PMS5003;33066;49.296;14.470;2022-11-12T13:45:02;31;27;
47081;PMS5003;33066;49.296;14.470;2022-11-12T13:47:27;22;20;
47081;PMS5003;33066;49.296;14.470;2022-11-12T13:49:53;25;23;
47081;PMS5003;33066;49.296;14.470;2022-11-12T13:52:19;21;18;
47081;PMS5003;33066;49.296;14.470;2022-11-12T13:54:43;21;20;
47081;PMS5003;33066;49.296;14.470;2022-11-12T13:57:13;31;27;
47081;PMS5003;33066;49.296;14.470;2022-11-12T13:59:34;30;25;
47081;PMS5003;33066;49.296;14.470;2022-11-12T14:02:03;32;28;
47081;PMS5003;33066;49.296;14.470;2022-11-12T14:04:25;19;19;
47081;PMS5003;33066;49.296;14.470;2022-11-12T14:06:50;28;23;
47081;PMS5003;33066;49.296;14.470;2022-11-12T14:09:20;26;26;
47081;PMS5003;33066;49.296;14.470;2022-11-12T14:11:47;30;27;
47081;PMS5003;33066;49.296;14.470;2022-11-12T14:14:07;27;24;
47081;PMS5003;33066;49.296;14.470;2022-11-12T14:16:36;28;26;
47081;PMS5003;33066;49.296;14.470;2022-11-12T14:19:01;28;26;
47081;PMS5003;33066;49.296;14.470;2022-11-12T14:21:21;34;33;
47081;PMS5003;33066;49.296;14.470;2022-11-12T14:23:47;35;31;
47081;PMS5003;33066;49.296;14.470;2022-11-12T14:26:13;25;25;
47081;PMS5003;33066;49.296;14.470;2022-11-12T14:28:38;25;22;
47081;PMS5003;33066;49.296;14.470;2022-11-12T14:31:03;27;25;
47081;PMS5003;33066;49.296;14.470;2022-11-12T14:33:29;31;25;
47081;PMS5003;33066;49.296;14.470;2022-11-12T14:35:54;22;19;
47081;PMS5003;33066;49.296;14.470;2022-11-12T14:38:20;26;26;
47081;PMS5003;33066;49.296;14.470;2022-11-12T14:40:46;38;36;
47081;PMS5003;33066;49.296;14.470;2022-11-12T14:43:17;42;34;
47081;PMS5003;33066;49.296;14.470;2022-11-12T14:45:36;39;34;
47081;PMS5003;33066;49.296;14.470;2022-11-12T14:48:01;34;33;
47081;PMS5003;33066;49.296;14.470;2022-11-12T14:50:28;35;29;
47081;PMS5003;33066;49.296;14.470;2022-11-12T14:52:54;33;33;
47081;PMS5003;33066;49.296;14.470;2022-11-12T14:55:19;131;114;
47081;PMS5003;33066;49.296;14.470;2022-11-12T14:57:44;106;96;
47081;PMS5003;33066;49.296;14.470;2022-11-12T15:00:16;103;92;
47081;PMS5003;33066;49.296;14.470;2022-11-12T15:02:35;91;87;
47081;PMS5003;33066;49.296;14.470;2022-11-12T15:05:03;93;82;
47081;PMS5003;33066;49.296;14.470;2022-11-12T15:07:27;100;78;
47081;PMS5003;33066;49.296;14.470;2022-11-12T15:09:52;64;57;
47081;PMS5003;33066;49.296;14.470;2022-11-12T15:12:18;63;56;
47081;PMS5003;33066;49.296;14.470;2022-11-12T15:14:42;58;50;
47081;PMS5003;33066;49.296;14.470;2022-11-12T15:19:33;59;56;
47081;PMS5003;33066;49.296;14.470;2022-11-12T15:21:59;45;44;
47081;PMS5003;33066;49.296;14.470;2022-11-12T15:24:25;36;31;
47081;PMS5003;33066;49.296;14.470;2022-11-12T15:26:50;41;36;
47081;PMS5003;33066;49.296;14.470;2022-11-12T15:29:23;40;38;
47081;PMS5003;33066;49.296;14.470;2022-11-12T15:31:43;108;97;
47081;PMS5003;33066;49.296;14.470;2022-11-12T15:36:31;95;80;
47081;PMS5003;33066;49.296;14.470;2022-11-12T15:38:57;89;83;
47081;PMS5003;33066;49.296;14.470;2022-11-12T15:41:23;124;101;
47081;PMS5003;33066;49.296;14.470;2022-11-12T15:43:47;109;94;
47081;PMS5003;33066;49.296;14.470;2022-11-12T15:46:13;96;87;
47081;PMS5003;33066;49.296;14.470;2022-11-12T15:48:38;105;95;
47081;PMS5003;33066;49.296;14.470;2022-11-12T15:51:06;119;101;
47081;PMS5003;33066;49.296;14.470;2022-11-12T15:53:29;99;84;
47081;PMS5003;33066;49.296;14.470;2022-11-12T15:55:54;93;84;
47081;PMS5003;33066;49.296;14.470;2022-11-12T15:58:23;86;75;
47081;PMS5003;33066;49.296;14.470;2022-11-12T16:00:46;74;71;
47081;PMS5003;33066;49.296;14.470;2022-11-12T16:03:12;69;58;
47081;PMS5003;33066;49.296;14.470;2022-11-12T16:05:36;62;54;
47081;PMS5003;33066;49.296;14.470;2022-11-12T16:08:01;77;68;
47081;PMS5003;33066;49.296;14.470;2022-11-12T16:10:27;62;56;
47081;PMS5003;33066;49.296;14.470;2022-11-12T16:12:55;76;66;
47081;PMS5003;33066;49.296;14.470;2022-11-12T16:15:20;73;67;
47081;PMS5003;33066;49.296;14.470;2022-11-12T16:17:45;70;58;
47081;PMS5003;33066;49.296;14.470;2022-11-12T16:20:12;76;69;
47081;PMS5003;33066;49.296;14.470;2022-11-12T16:22:35;95;87;
47081;PMS5003;33066;49.296;14.470;2022-11-12T16:25:00;97;86;